Asian Infinity — 3EVP3 — position and weather

sailwx.info

Track history (hours):
 
Tides and Currents Weather Stations Pressure Air Temp Water Temp Dewpoint Dewpoint Depression Visibility Wind Speed Wind Dir Waves Ship Positions

Asian Infinity

Last reported at 2016-Jul-26 07:33 UTC. Time now 2016-Jul-26 08:27 UTC.
Position N 38°59' E 117°45'.

Length 104 m; draft 5 m.

Type: Cargo ship. MMSI: 351868000.

Date/timePositionNaut miles runAvg speedWind from/ knotsBaromVisibWave heightAir tempDewpointWater temp
2016-Jul-26 07:33N 38°59' E 117°45'0 0.0
2016-Jul-26 06:33N 38°59' E 117°45'0 0.0
2016-Jul-26 05:33N 38°59' E 117°45'0 0.0
2016-Jul-26 04:27N 38°59' E 117°45'0 0.0
2016-Jul-26 03:33N 38°59' E 117°45'0 0.0
2016-Jul-26 02:17N 38°59' E 117°45'0 0.0
2016-Jul-26 01:17N 38°59' E 117°45'136 3.6
2016-Jul-24 11:33N 38°38' E 120°38'1110.7
2016-Jul-24 10:33N 38°37' E 120°52'1211.9
2016-Jul-24 09:33N 38°32' E 121°06'1212.1
2016-Jul-24 08:33N 38°32' E 121°21'1212.1
2016-Jul-24 07:33N 38°32' E 121°37'9 8.8
2016-Jul-24 06:33N 38°39' E 121°43'1111.3
2016-Jul-24 05:33N 38°50' E 121°45'9 9.2
2016-Jul-24 04:33N 38°59' E 121°46'2 1.6
2016-Jul-24 03:29N 39°01' E 121°45'0 0.0
2016-Jul-24 01:20N 39°01' E 121°45'0 0.0
2016-Jul-24 00:26N 39°01' E 121°45'0 0.0
2016-Jul-23 18:29N 39°01' E 121°45'0 0.0
2016-Jul-23 11:28N 39°01' E 121°45'6 6.5
2016-Jul-23 10:33N 38°55' E 121°47'6 6.2
2016-Jul-23 09:34N 38°51' E 121°53'4 0.6
2016-Jul-23 02:29N 38°54' E 121°57'8 8.4
2016-Jul-23 01:32N 38°46' E 121°58'1211.2
2016-Jul-23 00:29N 38°35' E 122°04'8310.2
2016-Jul-22 16:20N 37°26' E 123°03'8 9.9
2016-Jul-22 15:33N 37°18' E 123°03'31511.6
2016-Jul-21 12:24N 32°03' E 122°53'18 9.5
2016-Jul-21 10:32N 31°46' E 122°54'65 6.4
2016-Jul-21 00:21N 31°13' E 121°48'1113.0
2016-Jul-20 23:32N 31°21' E 121°39'8 7.7
2016-Jul-20 22:30N 31°22' E 121°30'1 0.9
2016-Jul-20 21:31N 31°21' E 121°31'0 0.0
2016-Jul-20 19:19N 31°21' E 121°31'0 0.0
2016-Jul-20 18:07N 31°21' E 121°31'0 0.0
2016-Jul-20 17:25N 31°21' E 121°31'0 0.0
2016-Jul-20 16:31N 31°21' E 121°31'0 0.0
2016-Jul-20 14:28N 31°21' E 121°31'0 0.0
2016-Jul-20 13:19N 31°21' E 121°31'0 0.0
2016-Jul-20 12:25N 31°21' E 121°31'0 0.0
2016-Jul-20 11:19N 31°21' E 121°31'0 0.0
2016-Jul-20 10:31N 31°21' E 121°31'0 0.0
2016-Jul-20 09:31N 31°21' E 121°31'0 0.0
2016-Jul-20 08:25N 31°21' E 121°31'0 0.0
2016-Jul-20 07:25N 31°21' E 121°31'0 0.0
2016-Jul-20 06:07N 31°21' E 121°31'0 0.0
2016-Jul-20 05:31N 31°21' E 121°31'0 0.0
2016-Jul-20 04:19N 31°21' E 121°31'0 0.0
2016-Jul-20 03:31N 31°21' E 121°31'0 0.0
2016-Jul-20 02:25N 31°21' E 121°31'0 0.0
2016-Jul-20 01:31N 31°21' E 121°31'0 0.0
2016-Jul-20 00:31N 31°21' E 121°31'0 0.0
2016-Jul-19 23:25N 31°21' E 121°31'0 0.0
2016-Jul-19 22:25N 31°21' E 121°31'0 0.0
2016-Jul-19 21:25N 31°21' E 121°31'0 0.0
2016-Jul-19 20:31N 31°21' E 121°31'0 0.1
2016-Jul-19 19:27N 31°21' E 121°31'3 3.8
2016-Jul-19 18:33N 31°24' E 121°33'9 8.5
2016-Jul-19 17:32N 31°20' E 121°42'  
Track history (hours):
 
Tides and Currents Weather Stations Pressure Air Temp Water Temp Dewpoint Dewpoint Depression Visibility Wind Speed Wind Dir Waves Ship Positions

Asian Infinity

Last reported at 2016-Jul-26 07:33 UTC. Time now 2016-Jul-26 08:27 UTC.
Position N 38°59' E 117°45'.

Length 104 m; draft 5 m.

Type: Cargo ship. MMSI: 351868000.

Date/timePositionNaut miles runAvg speedWind from/ knotsBaromVisibWave heightAir tempDewpointWater temp
2016-Jul-26 07:33N 38°59' E 117°45'0 0.0
2016-Jul-26 06:33N 38°59' E 117°45'0 0.0
2016-Jul-26 05:33N 38°59' E 117°45'0 0.0
2016-Jul-26 04:27N 38°59' E 117°45'0 0.0
2016-Jul-26 03:33N 38°59' E 117°45'0 0.0
2016-Jul-26 02:17N 38°59' E 117°45'0 0.0
2016-Jul-26 01:17N 38°59' E 117°45'136 3.6
2016-Jul-24 11:33N 38°38' E 120°38'1110.7
2016-Jul-24 10:33N 38°37' E 120°52'1211.9
2016-Jul-24 09:33N 38°32' E 121°06'1212.1
2016-Jul-24 08:33N 38°32' E 121°21'1212.1
2016-Jul-24 07:33N 38°32' E 121°37'9 8.8
2016-Jul-24 06:33N 38°39' E 121°43'1111.3
2016-Jul-24 05:33N 38°50' E 121°45'9 9.2
2016-Jul-24 04:33N 38°59' E 121°46'2 1.6
2016-Jul-24 03:29N 39°01' E 121°45'0 0.0
2016-Jul-24 01:20N 39°01' E 121°45'0 0.0
2016-Jul-24 00:26N 39°01' E 121°45'0 0.0
2016-Jul-23 18:29N 39°01' E 121°45'0 0.0
2016-Jul-23 11:28N 39°01' E 121°45'6 6.5
2016-Jul-23 10:33N 38°55' E 121°47'6 6.2
2016-Jul-23 09:34N 38°51' E 121°53'4 0.6
2016-Jul-23 02:29N 38°54' E 121°57'8 8.4
2016-Jul-23 01:32N 38°46' E 121°58'1211.2
2016-Jul-23 00:29N 38°35' E 122°04'8310.2
2016-Jul-22 16:20N 37°26' E 123°03'8 9.9
2016-Jul-22 15:33N 37°18' E 123°03'31511.6
2016-Jul-21 12:24N 32°03' E 122°53'18 9.5
2016-Jul-21 10:32N 31°46' E 122°54'65 6.4
2016-Jul-21 00:21N 31°13' E 121°48'1113.0
2016-Jul-20 23:32N 31°21' E 121°39'8 7.7
2016-Jul-20 22:30N 31°22' E 121°30'1 0.9
2016-Jul-20 21:31N 31°21' E 121°31'0 0.0
2016-Jul-20 19:19N 31°21' E 121°31'0 0.0
2016-Jul-20 18:07N 31°21' E 121°31'0 0.0
2016-Jul-20 17:25N 31°21' E 121°31'0 0.0
2016-Jul-20 16:31N 31°21' E 121°31'0 0.0
2016-Jul-20 14:28N 31°21' E 121°31'0 0.0
2016-Jul-20 13:19N 31°21' E 121°31'0 0.0
2016-Jul-20 12:25N 31°21' E 121°31'0 0.0
2016-Jul-20 11:19N 31°21' E 121°31'0 0.0
2016-Jul-20 10:31N 31°21' E 121°31'0 0.0
2016-Jul-20 09:31N 31°21' E 121°31'0 0.0
2016-Jul-20 08:25N 31°21' E 121°31'0 0.0
2016-Jul-20 07:25N 31°21' E 121°31'0 0.0
2016-Jul-20 06:07N 31°21' E 121°31'0 0.0
2016-Jul-20 05:31N 31°21' E 121°31'0 0.0
2016-Jul-20 04:19N 31°21' E 121°31'0 0.0
2016-Jul-20 03:31N 31°21' E 121°31'0 0.0
2016-Jul-20 02:25N 31°21' E 121°31'0 0.0
2016-Jul-20 01:31N 31°21' E 121°31'0 0.0
2016-Jul-20 00:31N 31°21' E 121°31'0 0.0
2016-Jul-19 23:25N 31°21' E 121°31'0 0.0
2016-Jul-19 22:25N 31°21' E 121°31'0 0.0
2016-Jul-19 21:25N 31°21' E 121°31'0 0.0
2016-Jul-19 20:31N 31°21' E 121°31'0 0.1
2016-Jul-19 19:27N 31°21' E 121°31'3 3.8
2016-Jul-19 18:33N 31°24' E 121°33'9 8.5
2016-Jul-19 17:32N 31°20' E 121°42'  

Dump ship's entire track history